sensor_id;sensor_type;location;lat;lon;timestamp;temperature;humidity
17066;DHT22;23120;52.336;21.182;2022-12-24T00:01:27;15.20;55.60
17066;DHT22;23120;52.336;21.182;2022-12-24T00:03:54;15.20;55.60
17066;DHT22;23120;52.336;21.182;2022-12-24T00:06:23;15.10;55.50
17066;DHT22;23120;52.336;21.182;2022-12-24T00:08:50;15.20;55.60
17066;DHT22;23120;52.336;21.182;2022-12-24T00:11:18;15.10;55.60
17066;DHT22;23120;52.336;21.182;2022-12-24T00:13:45;15.10;55.60
17066;DHT22;23120;52.336;21.182;2022-12-24T00:16:11;15.10;55.60
17066;DHT22;23120;52.336;21.182;2022-12-24T00:18:38;15.10;55.60
17066;DHT22;23120;52.336;21.182;2022-12-24T00:21:05;15.10;55.60
17066;DHT22;23120;52.336;21.182;2022-12-24T00:23:33;15.10;55.50
17066;DHT22;23120;52.336;21.182;2022-12-24T00:25:59;15.10;55.40
17066;DHT22;23120;52.336;21.182;2022-12-24T00:28:26;15.10;55.40
17066;DHT22;23120;52.336;21.182;2022-12-24T00:30:53;15.10;55.50
17066;DHT22;23120;52.336;21.182;2022-12-24T00:33:20;15.10;55.50
17066;DHT22;23120;52.336;21.182;2022-12-24T00:35:49;15.10;55.50
17066;DHT22;23120;52.336;21.182;2022-12-24T00:38:16;15.10;55.50
17066;DHT22;23120;52.336;21.182;2022-12-24T00:40:44;15.10;55.40
17066;DHT22;23120;52.336;21.182;2022-12-24T00:43:11;15.10;55.40
17066;DHT22;23120;52.336;21.182;2022-12-24T00:45:37;15.10;55.40
17066;DHT22;23120;52.336;21.182;2022-12-24T00:48:05;15.10;55.50
17066;DHT22;23120;52.336;21.182;2022-12-24T00:50:31;15.10;55.40
17066;DHT22;23120;52.336;21.182;2022-12-24T00:52:58;15.10;55.50
17066;DHT22;23120;52.336;21.182;2022-12-24T00:55:25;15.10;55.40
17066;DHT22;23120;52.336;21.182;2022-12-24T00:57:53;15.10;55.40
17066;DHT22;23120;52.336;21.182;2022-12-24T01:00:20;15.10;55.40
17066;DHT22;23120;52.336;21.182;2022-12-24T01:02:47;15.00;55.40
17066;DHT22;23120;52.336;21.182;2022-12-24T01:05:13;15.00;55.40
17066;DHT22;23120;52.336;21.182;2022-12-24T01:07:42;15.10;55.50
17066;DHT22;23120;52.336;21.182;2022-12-24T01:10:10;15.10;55.40
17066;DHT22;23120;52.336;21.182;2022-12-24T01:12:38;15.10;55.50
17066;DHT22;23120;52.336;21.182;2022-12-24T01:15:07;15.10;55.40
17066;DHT22;23120;52.336;21.182;2022-12-24T01:17:34;15.00;55.30
17066;DHT22;23120;52.336;21.182;2022-12-24T01:20:02;15.00;55.40
17066;DHT22;23120;52.336;21.182;2022-12-24T01:22:29;15.10;55.50
17066;DHT22;23120;52.336;21.182;2022-12-24T01:24:56;15.00;55.30
17066;DHT22;23120;52.336;21.182;2022-12-24T01:27:22;15.10;55.40
17066;DHT22;23120;52.336;21.182;2022-12-24T01:29:49;15.00;55.40
17066;DHT22;23120;52.336;21.182;2022-12-24T01:32:17;15.10;55.40
17066;DHT22;23120;52.336;21.182;2022-12-24T01:34:44;15.20;55.30
17066;DHT22;23120;52.336;21.182;2022-12-24T01:37:11;15.20;55.10
17066;DHT22;23120;52.336;21.182;2022-12-24T01:39:37;15.40;55.00
17066;DHT22;23120;52.336;21.182;2022-12-24T01:42:16;15.40;54.70
17066;DHT22;23120;52.336;21.182;2022-12-24T01:45:37;15.60;54.70
17066;DHT22;23120;52.336;21.182;2022-12-24T01:48:13;15.70;54.50
17066;DHT22;23120;52.336;21.182;2022-12-24T01:50:41;15.80;54.20
17066;DHT22;23120;52.336;21.182;2022-12-24T01:53:09;15.90;54.00
17066;DHT22;23120;52.336;21.182;2022-12-24T01:55:37;16.00;53.80
17066;DHT22;23120;52.336;21.182;2022-12-24T01:58:04;16.10;53.70
17066;DHT22;23120;52.336;21.182;2022-12-24T02:00:32;16.20;53.60
17066;DHT22;23120;52.336;21.182;2022-12-24T02:02:59;16.20;53.50
17066;DHT22;23120;52.336;21.182;2022-12-24T02:05:30;16.20;53.30
17066;DHT22;23120;52.336;21.182;2022-12-24T02:07:58;16.20;53.30
17066;DHT22;23120;52.336;21.182;2022-12-24T02:10:26;16.20;53.20
17066;DHT22;23120;52.336;21.182;2022-12-24T02:12:52;16.20;53.20
17066;DHT22;23120;52.336;21.182;2022-12-24T02:15:20;16.20;53.20
17066;DHT22;23120;52.336;21.182;2022-12-24T02:17:53;16.20;53.40
17066;DHT22;23120;52.336;21.182;2022-12-24T02:23:41;16.10;53.50
17066;DHT22;23120;52.336;21.182;2022-12-24T02:26:26;16.10;53.60
17066;DHT22;23120;52.336;21.182;2022-12-24T02:29:13;16.00;53.60
17066;DHT22;23120;52.336;21.182;2022-12-24T02:31:47;16.00;53.70
17066;DHT22;23120;52.336;21.182;2022-12-24T02:34:18;16.00;53.80
17066;DHT22;23120;52.336;21.182;2022-12-24T02:36:57;16.00;53.80
17066;DHT22;23120;52.336;21.182;2022-12-24T02:39:29;15.90;53.70
17066;DHT22;23120;52.336;21.182;2022-12-24T02:42:00;15.90;53.70
17066;DHT22;23120;52.336;21.182;2022-12-24T02:44:38;15.90;53.80
17066;DHT22;23120;52.336;21.182;2022-12-24T02:47:07;15.90;53.90
17066;DHT22;23120;52.336;21.182;2022-12-24T02:49:36;15.90;54.00
17066;DHT22;23120;52.336;21.182;2022-12-24T02:52:03;15.80;53.90
17066;DHT22;23120;52.336;21.182;2022-12-24T02:54:30;15.80;54.00
17066;DHT22;23120;52.336;21.182;2022-12-24T02:57:09;15.70;54.10
17066;DHT22;23120;52.336;21.182;2022-12-24T02:59:55;15.70;54.10
17066;DHT22;23120;52.336;21.182;2022-12-24T03:02:38;15.70;54.10
17066;DHT22;23120;52.336;21.182;2022-12-24T03:05:18;15.60;54.10
17066;DHT22;23120;52.336;21.182;2022-12-24T03:07:55;15.60;54.10
17066;DHT22;23120;52.336;21.182;2022-12-24T03:10:27;15.60;54.30
17066;DHT22;23120;52.336;21.182;2022-12-24T03:12:58;15.60;54.10
17066;DHT22;23120;52.336;21.182;2022-12-24T03:15:28;15.60;54.20
17066;DHT22;23120;52.336;21.182;2022-12-24T03:18:01;15.60;54.20
17066;DHT22;23120;52.336;21.182;2022-12-24T03:20:32;15.60;54.20
17066;DHT22;23120;52.336;21.182;2022-12-24T03:23:00;15.60;54.30
17066;DHT22;23120;52.336;21.182;2022-12-24T03:25:28;15.50;54.20
17066;DHT22;23120;52.336;21.182;2022-12-24T03:27:55;15.50;54.20
17066;DHT22;23120;52.336;21.182;2022-12-24T03:30:23;15.50;54.30
17066;DHT22;23120;52.336;21.182;2022-12-24T03:32:50;15.50;54.30
17066;DHT22;23120;52.336;21.182;2022-12-24T03:35:18;15.50;54.30
17066;DHT22;23120;52.336;21.182;2022-12-24T03:37:45;15.50;54.40
17066;DHT22;23120;52.336;21.182;2022-12-24T03:40:12;15.50;54.40
17066;DHT22;23120;52.336;21.182;2022-12-24T03:42:39;15.50;54.40
17066;DHT22;23120;52.336;21.182;2022-12-24T03:45:06;15.50;54.40
17066;DHT22;23120;52.336;21.182;2022-12-24T03:47:33;15.40;54.40
17066;DHT22;23120;52.336;21.182;2022-12-24T03:50:00;15.40;54.40
17066;DHT22;23120;52.336;21.182;2022-12-24T03:52:28;15.40;54.40
17066;DHT22;23120;52.336;21.182;2022-12-24T03:54:55;15.40;55.00
17066;DHT22;23120;52.336;21.182;2022-12-24T03:57:22;15.40;54.40
17066;DHT22;23120;52.336;21.182;2022-12-24T03:59:48;15.40;54.50
17066;DHT22;23120;52.336;21.182;2022-12-24T04:02:15;15.40;54.50
17066;DHT22;23120;52.336;21.182;2022-12-24T04:04:42;15.40;54.60
17066;DHT22;23120;52.336;21.182;2022-12-24T04:07:09;15.40;54.70
17066;DHT22;23120;52.336;21.182;2022-12-24T04:09:37;15.30;54.60
17066;DHT22;23120;52.336;21.182;2022-12-24T04:12:05;15.30;54.50
17066;DHT22;23120;52.336;21.182;2022-12-24T04:14:32;15.30;54.60
17066;DHT22;23120;52.336;21.182;2022-12-24T04:16:58;15.40;54.60
17066;DHT22;23120;52.336;21.182;2022-12-24T04:19:25;15.40;54.40
17066;DHT22;23120;52.336;21.182;2022-12-24T04:21:52;15.50;54.40
17066;DHT22;23120;52.336;21.182;2022-12-24T04:24:19;15.60;54.30
17066;DHT22;23120;52.336;21.182;2022-12-24T04:26:47;15.60;54.00
17066;DHT22;23120;52.336;21.182;2022-12-24T04:29:13;15.80;54.00
17066;DHT22;23120;52.336;21.182;2022-12-24T04:31:40;15.90;53.80
17066;DHT22;23120;52.336;21.182;2022-12-24T04:34:07;16.00;53.70
17066;DHT22;23120;52.336;21.182;2022-12-24T04:36:34;16.10;53.50
17066;DHT22;23120;52.336;21.182;2022-12-24T04:39:03;16.10;53.90
17066;DHT22;23120;52.336;21.182;2022-12-24T04:41:29;16.30;53.10
17066;DHT22;23120;52.336;21.182;2022-12-24T04:43:58;16.30;53.00
17066;DHT22;23120;52.336;21.182;2022-12-24T04:46:26;16.40;53.00
17066;DHT22;23120;52.336;21.182;2022-12-24T04:48:55;16.40;52.80
17066;DHT22;23120;52.336;21.182;2022-12-24T04:51:23;16.40;52.80
17066;DHT22;23120;52.336;21.182;2022-12-24T04:53:50;16.40;52.70
17066;DHT22;23120;52.336;21.182;2022-12-24T04:56:19;16.50;52.80
17066;DHT22;23120;52.336;21.182;2022-12-24T04:58:47;16.40;52.70
17066;DHT22;23120;52.336;21.182;2022-12-24T05:01:17;16.40;52.70
17066;DHT22;23120;52.336;21.182;2022-12-24T05:03:44;16.40;52.80
17066;DHT22;23120;52.336;21.182;2022-12-24T05:06:13;16.40;52.80
17066;DHT22;23120;52.336;21.182;2022-12-24T05:08:41;16.40;52.80
17066;DHT22;23120;52.336;21.182;2022-12-24T05:11:08;16.40;52.80
17066;DHT22;23120;52.336;21.182;2022-12-24T05:13:39;16.40;52.80
17066;DHT22;23120;52.336;21.182;2022-12-24T05:16:05;16.40;52.70
17066;DHT22;23120;52.336;21.182;2022-12-24T05:18:34;16.40;52.60
17066;DHT22;23120;52.336;21.182;2022-12-24T05:21:01;16.50;52.70
17066;DHT22;23120;52.336;21.182;2022-12-24T05:23:28;16.50;52.50
17066;DHT22;23120;52.336;21.182;2022-12-24T05:26:15;16.50;52.30
17066;DHT22;23120;52.336;21.182;2022-12-24T05:28:49;16.50;52.40
17066;DHT22;23120;52.336;21.182;2022-12-24T05:31:16;16.60;52.40
17066;DHT22;23120;52.336;21.182;2022-12-24T05:33:44;16.60;52.30
17066;DHT22;23120;52.336;21.182;2022-12-24T05:36:10;16.60;52.30
17066;DHT22;23120;52.336;21.182;2022-12-24T05:38:37;16.60;52.20
17066;DHT22;23120;52.336;21.182;2022-12-24T05:41:05;16.70;52.20
17066;DHT22;23120;52.336;21.182;2022-12-24T05:43:32;16.60;52.10
17066;DHT22;23120;52.336;21.182;2022-12-24T05:45:58;16.70;52.10
17066;DHT22;23120;52.336;21.182;2022-12-24T05:48:25;16.70;52.10
17066;DHT22;23120;52.336;21.182;2022-12-24T05:50:54;16.60;52.10
17066;DHT22;23120;52.336;21.182;2022-12-24T05:53:21;16.60;52.10
17066;DHT22;23120;52.336;21.182;2022-12-24T05:55:48;16.60;52.20
17066;DHT22;23120;52.336;21.182;2022-12-24T05:58:14;16.60;52.20
17066;DHT22;23120;52.336;21.182;2022-12-24T06:00:42;16.60;52.20
17066;DHT22;23120;52.336;21.182;2022-12-24T06:03:08;16.50;52.20
17066;DHT22;23120;52.336;21.182;2022-12-24T06:05:35;16.50;52.20
17066;DHT22;23120;52.336;21.182;2022-12-24T06:08:04;16.50;52.20
17066;DHT22;23120;52.336;21.182;2022-12-24T06:10:31;16.50;52.20
17066;DHT22;23120;52.336;21.182;2022-12-24T06:12:58;16.50;52.30
17066;DHT22;23120;52.336;21.182;2022-12-24T06:15:24;16.50;52.30
17066;DHT22;23120;52.336;21.182;2022-12-24T06:17:51;16.40;52.30
17066;DHT22;23120;52.336;21.182;2022-12-24T06:20:18;16.40;52.40
17066;DHT22;23120;52.336;21.182;2022-12-24T06:22:45;16.40;52.40
17066;DHT22;23120;52.336;21.182;2022-12-24T06:25:13;16.40;52.50
17066;DHT22;23120;52.336;21.182;2022-12-24T06:27:39;16.30;52.30
17066;DHT22;23120;52.336;21.182;2022-12-24T06:30:07;16.30;52.40
17066;DHT22;23120;52.336;21.182;2022-12-24T06:32:34;16.30;52.50
17066;DHT22;23120;52.336;21.182;2022-12-24T06:35:01;16.30;52.50
17066;DHT22;23120;52.336;21.182;2022-12-24T06:37:27;16.30;52.40
17066;DHT22;23120;52.336;21.182;2022-12-24T06:39:54;16.30;52.30
17066;DHT22;23120;52.336;21.182;2022-12-24T06:42:22;16.30;52.40
17066;DHT22;23120;52.336;21.182;2022-12-24T06:44:49;16.30;52.40
17066;DHT22;23120;52.336;21.182;2022-12-24T06:47:16;16.30;52.30
17066;DHT22;23120;52.336;21.182;2022-12-24T06:49:43;16.30;52.30
17066;DHT22;23120;52.336;21.182;2022-12-24T06:52:09;16.30;52.30
17066;DHT22;23120;52.336;21.182;2022-12-24T06:54:36;16.30;52.30
17066;DHT22;23120;52.336;21.182;2022-12-24T06:57:03;16.40;52.30
17066;DHT22;23120;52.336;21.182;2022-12-24T06:59:32;16.40;52.20
17066;DHT22;23120;52.336;21.182;2022-12-24T07:01:59;16.40;52.20
17066;DHT22;23120;52.336;21.182;2022-12-24T07:04:26;16.40;52.20
17066;DHT22;23120;52.336;21.182;2022-12-24T07:06:52;16.50;52.20
17066;DHT22;23120;52.336;21.182;2022-12-24T07:09:19;16.40;52.10
17066;DHT22;23120;52.336;21.182;2022-12-24T07:11:46;16.40;52.10
17066;DHT22;23120;52.336;21.182;2022-12-24T07:14:12;16.50;52.20
17066;DHT22;23120;52.336;21.182;2022-12-24T07:16:41;16.50;52.10
17066;DHT22;23120;52.336;21.182;2022-12-24T07:19:07;16.50;52.00
17066;DHT22;23120;52.336;21.182;2022-12-24T07:21:34;16.50;52.00
17066;DHT22;23120;52.336;21.182;2022-12-24T07:24:01;16.50;52.00
17066;DHT22;23120;52.336;21.182;2022-12-24T07:26:27;16.50;51.90
17066;DHT22;23120;52.336;21.182;2022-12-24T07:28:54;16.50;51.90
17066;DHT22;23120;52.336;21.182;2022-12-24T07:31:21;16.50;51.90
17066;DHT22;23120;52.336;21.182;2022-12-24T07:33:49;16.50;51.90
17066;DHT22;23120;52.336;21.182;2022-12-24T07:36:18;16.50;51.90
17066;DHT22;23120;52.336;21.182;2022-12-24T07:38:45;16.50;52.10
17066;DHT22;23120;52.336;21.182;2022-12-24T07:41:12;16.40;52.00
17066;DHT22;23120;52.336;21.182;2022-12-24T07:43:39;16.40;52.10
17066;DHT22;23120;52.336;21.182;2022-12-24T07:46:06;16.40;52.10
17066;DHT22;23120;52.336;21.182;2022-12-24T07:48:33;16.40;52.10
17066;DHT22;23120;52.336;21.182;2022-12-24T07:51:01;16.40;52.20
17066;DHT22;23120;52.336;21.182;2022-12-24T07:53:29;16.30;52.10
17066;DHT22;23120;52.336;21.182;2022-12-24T07:55:56;16.40;52.20
17066;DHT22;23120;52.336;21.182;2022-12-24T07:58:23;16.30;52.20
17066;DHT22;23120;52.336;21.182;2022-12-24T08:00:54;16.30;52.10
17066;DHT22;23120;52.336;21.182;2022-12-24T08:03:21;16.30;52.80
17066;DHT22;23120;52.336;21.182;2022-12-24T08:05:48;16.30;52.10
17066;DHT22;23120;52.336;21.182;2022-12-24T08:08:18;16.30;52.20
17066;DHT22;23120;52.336;21.182;2022-12-24T08:10:45;16.30;52.20
17066;DHT22;23120;52.336;21.182;2022-12-24T08:13:12;16.20;52.20
17066;DHT22;23120;52.336;21.182;2022-12-24T08:15:39;16.20;52.30
17066;DHT22;23120;52.336;21.182;2022-12-24T08:18:06;16.20;52.30
17066;DHT22;23120;52.336;21.182;2022-12-24T08:20:33;16.20;52.40
17066;DHT22;23120;52.336;21.182;2022-12-24T08:23:00;16.20;52.40
17066;DHT22;23120;52.336;21.182;2022-12-24T08:25:28;16.10;52.40
17066;DHT22;23120;52.336;21.182;2022-12-24T08:27:55;16.10;52.40
17066;DHT22;23120;52.336;21.182;2022-12-24T08:30:23;16.10;52.50
17066;DHT22;23120;52.336;21.182;2022-12-24T08:32:50;16.10;52.60
17066;DHT22;23120;52.336;21.182;2022-12-24T08:35:17;16.00;52.60
17066;DHT22;23120;52.336;21.182;2022-12-24T08:37:44;16.00;52.70
17066;DHT22;23120;52.336;21.182;2022-12-24T08:40:11;16.00;52.70
17066;DHT22;23120;52.336;21.182;2022-12-24T08:42:39;16.00;52.80
17066;DHT22;23120;52.336;21.182;2022-12-24T08:45:07;16.00;52.80
17066;DHT22;23120;52.336;21.182;2022-12-24T08:47:34;15.90;52.70
17066;DHT22;23120;52.336;21.182;2022-12-24T08:50:01;15.90;52.70
17066;DHT22;23120;52.336;21.182;2022-12-24T08:52:28;15.90;52.70
17066;DHT22;23120;52.336;21.182;2022-12-24T08:54:54;15.90;52.70
17066;DHT22;23120;52.336;21.182;2022-12-24T08:57:21;15.90;52.70
17066;DHT22;23120;52.336;21.182;2022-12-24T08:59:49;15.90;52.70
17066;DHT22;23120;52.336;21.182;2022-12-24T09:02:16;15.80;52.70
17066;DHT22;23120;52.336;21.182;2022-12-24T09:04:43;15.80;52.80
17066;DHT22;23120;52.336;21.182;2022-12-24T09:07:10;15.80;52.80
17066;DHT22;23120;52.336;21.182;2022-12-24T09:09:37;15.80;52.90
17066;DHT22;23120;52.336;21.182;2022-12-24T09:12:05;15.80;53.00
17066;DHT22;23120;52.336;21.182;2022-12-24T09:14:32;15.80;53.00
17066;DHT22;23120;52.336;21.182;2022-12-24T09:17:00;15.70;53.00
17066;DHT22;23120;52.336;21.182;2022-12-24T09:19:27;15.70;53.00
17066;DHT22;23120;52.336;21.182;2022-12-24T09:21:54;15.70;53.00
17066;DHT22;23120;52.336;21.182;2022-12-24T09:24:21;15.70;53.10
17066;DHT22;23120;52.336;21.182;2022-12-24T09:26:47;15.70;53.00
17066;DHT22;23120;52.336;21.182;2022-12-24T09:29:15;15.70;53.10
17066;DHT22;23120;52.336;21.182;2022-12-24T09:31:41;15.70;53.10
17066;DHT22;23120;52.336;21.182;2022-12-24T09:34:10;15.70;53.10
17066;DHT22;23120;52.336;21.182;2022-12-24T09:36:36;15.70;53.20
17066;DHT22;23120;52.336;21.182;2022-12-24T09:39:03;15.70;53.20
17066;DHT22;23120;52.336;21.182;2022-12-24T09:41:41;15.70;53.20
17066;DHT22;23120;52.336;21.182;2022-12-24T09:44:19;15.70;53.30
17066;DHT22;23120;52.336;21.182;2022-12-24T09:46:49;15.70;53.40
17066;DHT22;23120;52.336;21.182;2022-12-24T09:49:20;15.70;53.30
17066;DHT22;23120;52.336;21.182;2022-12-24T09:51:50;15.70;53.40
17066;DHT22;23120;52.336;21.182;2022-12-24T09:54:21;15.60;53.30
17066;DHT22;23120;52.336;21.182;2022-12-24T09:56:52;15.60;53.40
17066;DHT22;23120;52.336;21.182;2022-12-24T09:59:22;15.60;53.40
17066;DHT22;23120;52.336;21.182;2022-12-24T10:01:51;15.60;53.40
17066;DHT22;23120;52.336;21.182;2022-12-24T10:04:21;15.60;53.40
17066;DHT22;23120;52.336;21.182;2022-12-24T10:06:56;15.60;53.40
17066;DHT22;23120;52.336;21.182;2022-12-24T10:09:32;15.60;53.40
17066;DHT22;23120;52.336;21.182;2022-12-24T10:12:06;15.60;53.40
17066;DHT22;23120;52.336;21.182;2022-12-24T10:14:47;15.60;53.40
17066;DHT22;23120;52.336;21.182;2022-12-24T10:17:29;15.50;53.30
17066;DHT22;23120;52.336;21.182;2022-12-24T10:20:10;15.60;53.50
17066;DHT22;23120;52.336;21.182;2022-12-24T10:22:50;15.50;53.40
17066;DHT22;23120;52.336;21.182;2022-12-24T10:25:21;15.50;53.40
17066;DHT22;23120;52.336;21.182;2022-12-24T10:27:54;15.50;53.50
17066;DHT22;23120;52.336;21.182;2022-12-24T10:30:21;15.50;53.50
17066;DHT22;23120;52.336;21.182;2022-12-24T10:32:50;15.50;53.60
17066;DHT22;23120;52.336;21.182;2022-12-24T10:35:22;15.50;53.60
17066;DHT22;23120;52.336;21.182;2022-12-24T10:37:50;15.50;53.60
17066;DHT22;23120;52.336;21.182;2022-12-24T10:40:25;15.50;53.60
17066;DHT22;23120;52.336;21.182;2022-12-24T10:42:53;15.50;53.70
17066;DHT22;23120;52.336;21.182;2022-12-24T10:45:23;15.50;53.60
17066;DHT22;23120;52.336;21.182;2022-12-24T10:47:54;15.50;53.60
17066;DHT22;23120;52.336;21.182;2022-12-24T10:50:30;15.50;53.70
17066;DHT22;23120;52.336;21.182;2022-12-24T10:53:03;15.50;53.70
17066;DHT22;23120;52.336;21.182;2022-12-24T10:55:32;15.50;53.70
17066;DHT22;23120;52.336;21.182;2022-12-24T10:58:00;15.50;53.70
17066;DHT22;23120;52.336;21.182;2022-12-24T11:00:28;15.50;53.70
17066;DHT22;23120;52.336;21.182;2022-12-24T11:03:19;15.50;53.70
17066;DHT22;23120;52.336;21.182;2022-12-24T11:05:58;15.50;53.80
17066;DHT22;23120;52.336;21.182;2022-12-24T11:08:25;15.50;53.80
17066;DHT22;23120;52.336;21.182;2022-12-24T11:10:54;15.40;53.70
17066;DHT22;23120;52.336;21.182;2022-12-24T11:13:24;15.40;53.70
17066;DHT22;23120;52.336;21.182;2022-12-24T11:16:00;15.40;53.90
17066;DHT22;23120;52.336;21.182;2022-12-24T11:18:27;15.40;53.80
17066;DHT22;23120;52.336;21.182;2022-12-24T11:20:55;15.40;53.70
17066;DHT22;23120;52.336;21.182;2022-12-24T11:23:26;15.40;53.80
17066;DHT22;23120;52.336;21.182;2022-12-24T11:25:53;15.40;53.80
17066;DHT22;23120;52.336;21.182;2022-12-24T11:28:22;15.40;53.80
17066;DHT22;23120;52.336;21.182;2022-12-24T11:31:01;15.40;53.80
17066;DHT22;23120;52.336;21.182;2022-12-24T11:33:30;15.40;53.80
17066;DHT22;23120;52.336;21.182;2022-12-24T11:36:01;15.40;53.80
17066;DHT22;23120;52.336;21.182;2022-12-24T11:38:29;15.40;53.80
17066;DHT22;23120;52.336;21.182;2022-12-24T11:41:03;15.40;53.80
17066;DHT22;23120;52.336;21.182;2022-12-24T11:43:36;15.40;53.80
17066;DHT22;23120;52.336;21.182;2022-12-24T11:46:19;15.40;53.80
17066;DHT22;23120;52.336;21.182;2022-12-24T11:48:46;15.40;53.80
17066;DHT22;23120;52.336;21.182;2022-12-24T11:51:23;15.40;53.80
17066;DHT22;23120;52.336;21.182;2022-12-24T11:53:57;15.40;53.80
17066;DHT22;23120;52.336;21.182;2022-12-24T11:56:34;15.40;53.90
17066;DHT22;23120;52.336;21.182;2022-12-24T11:59:09;15.40;53.90
17066;DHT22;23120;52.336;21.182;2022-12-24T12:01:46;15.40;54.50
17066;DHT22;23120;52.336;21.182;2022-12-24T12:04:17;15.40;53.90
17066;DHT22;23120;52.336;21.182;2022-12-24T12:06:48;15.40;53.90
17066;DHT22;23120;52.336;21.182;2022-12-24T12:09:19;15.40;53.90
17066;DHT22;23120;52.336;21.182;2022-12-24T12:11:51;15.40;53.90
17066;DHT22;23120;52.336;21.182;2022-12-24T12:14:21;15.40;53.90
17066;DHT22;23120;52.336;21.182;2022-12-24T12:16:57;15.40;54.50
17066;DHT22;23120;52.336;21.182;2022-12-24T12:19:32;15.30;53.90
17066;DHT22;23120;52.336;21.182;2022-12-24T12:22:05;15.30;53.80
17066;DHT22;23120;52.336;21.182;2022-12-24T12:24:36;15.30;53.90
17066;DHT22;23120;52.336;21.182;2022-12-24T12:27:10;15.40;53.90
17066;DHT22;23120;52.336;21.182;2022-12-24T12:29:44;15.40;53.90
17066;DHT22;23120;52.336;21.182;2022-12-24T12:32:25;15.40;53.90
17066;DHT22;23120;52.336;21.182;2022-12-24T12:34:59;15.40;53.90
17066;DHT22;23120;52.336;21.182;2022-12-24T12:37:33;15.40;53.90
17066;DHT22;23120;52.336;21.182;2022-12-24T12:40:01;15.40;53.90
17066;DHT22;23120;52.336;21.182;2022-12-24T12:42:30;15.30;53.80
17066;DHT22;23120;52.336;21.182;2022-12-24T12:45:21;15.30;53.80
17066;DHT22;23120;52.336;21.182;2022-12-24T12:50:52;15.40;53.90
17066;DHT22;23120;52.336;21.182;2022-12-24T12:53:34;15.30;53.90
17066;DHT22;23120;52.336;21.182;2022-12-24T12:56:19;15.30;53.90
17066;DHT22;23120;52.336;21.182;2022-12-24T12:58:51;15.30;54.00
17066;DHT22;23120;52.336;21.182;2022-12-24T13:01:21;15.30;53.90
17066;DHT22;23120;52.336;21.182;2022-12-24T13:07:20;15.30;53.80
17066;DHT22;23120;52.336;21.182;2022-12-24T13:13:14;15.30;53.90
17066;DHT22;23120;52.336;21.182;2022-12-24T13:16:07;15.30;53.90
17066;DHT22;23120;52.336;21.182;2022-12-24T13:18:46;15.30;53.80
17066;DHT22;23120;52.336;21.182;2022-12-24T13:21:19;15.30;53.90
17066;DHT22;23120;52.336;21.182;2022-12-24T13:23:47;15.30;53.90
17066;DHT22;23120;52.336;21.182;2022-12-24T13:26:14;15.30;53.80
17066;DHT22;23120;52.336;21.182;2022-12-24T13:28:43;15.30;53.90
17066;DHT22;23120;52.336;21.182;2022-12-24T13:31:27;15.30;53.80
17066;DHT22;23120;52.336;21.182;2022-12-24T13:34:01;15.30;53.90
17066;DHT22;23120;52.336;21.182;2022-12-24T13:36:59;15.30;53.90
17066;DHT22;23120;52.336;21.182;2022-12-24T13:39:26;15.30;53.90
17066;DHT22;23120;52.336;21.182;2022-12-24T13:41:53;15.30;53.90
17066;DHT22;23120;52.336;21.182;2022-12-24T13:44:28;15.30;53.90
17066;DHT22;23120;52.336;21.182;2022-12-24T13:47:02;15.30;53.90
17066;DHT22;23120;52.336;21.182;2022-12-24T13:49:33;15.30;53.90
17066;DHT22;23120;52.336;21.182;2022-12-24T13:52:22;15.30;53.90
17066;DHT22;23120;52.336;21.182;2022-12-24T13:55:04;15.20;53.80
17066;DHT22;23120;52.336;21.182;2022-12-24T13:57:35;15.30;53.90
17066;DHT22;23120;52.336;21.182;2022-12-24T14:00:21;15.30;53.90
17066;DHT22;23120;52.336;21.182;2022-12-24T14:02:53;15.30;53.90
17066;DHT22;23120;52.336;21.182;2022-12-24T14:05:26;15.30;53.80
17066;DHT22;23120;52.336;21.182;2022-12-24T14:07:57;15.30;53.80
17066;DHT22;23120;52.336;21.182;2022-12-24T14:10:25;15.30;53.80
17066;DHT22;23120;52.336;21.182;2022-12-24T14:12:56;15.20;53.70
17066;DHT22;23120;52.336;21.182;2022-12-24T14:18:34;15.30;53.80
17066;DHT22;23120;52.336;21.182;2022-12-24T14:21:03;15.20;53.70
17066;DHT22;23120;52.336;21.182;2022-12-24T14:23:39;15.20;53.70
17066;DHT22;23120;52.336;21.182;2022-12-24T14:26:13;15.30;53.80
17066;DHT22;23120;52.336;21.182;2022-12-24T14:28:44;15.20;53.70
17066;DHT22;23120;52.336;21.182;2022-12-24T14:31:14;15.30;53.70
17066;DHT22;23120;52.336;21.182;2022-12-24T14:33:43;15.20;53.60
17066;DHT22;23120;52.336;21.182;2022-12-24T14:36:12;15.30;53.70
17066;DHT22;23120;52.336;21.182;2022-12-24T14:38:40;15.20;53.60
17066;DHT22;23120;52.336;21.182;2022-12-24T14:41:16;15.20;53.60
17066;DHT22;23120;52.336;21.182;2022-12-24T14:43:50;15.30;53.60
17066;DHT22;23120;52.336;21.182;2022-12-24T14:46:25;15.20;53.50
17066;DHT22;23120;52.336;21.182;2022-12-24T14:48:56;15.30;53.60
17066;DHT22;23120;52.336;21.182;2022-12-24T14:51:30;15.30;53.50
17066;DHT22;23120;52.336;21.182;2022-12-24T14:54:16;15.40;53.30
17066;DHT22;23120;52.336;21.182;2022-12-24T14:56:46;15.50;53.30
17066;DHT22;23120;52.336;21.182;2022-12-24T14:59:14;15.60;53.00
17066;DHT22;23120;52.336;21.182;2022-12-24T15:01:41;15.70;52.80
17066;DHT22;23120;52.336;21.182;2022-12-24T15:04:16;15.80;52.60
17066;DHT22;23120;52.336;21.182;2022-12-24T15:06:46;15.90;52.60
17066;DHT22;23120;52.336;21.182;2022-12-24T15:09:17;16.00;52.30
17066;DHT22;23120;52.336;21.182;2022-12-24T15:11:47;16.10;52.10
17066;DHT22;23120;52.336;21.182;2022-12-24T15:14:15;16.20;52.00
17066;DHT22;23120;52.336;21.182;2022-12-24T15:16:49;16.30;51.90
17066;DHT22;23120;52.336;21.182;2022-12-24T15:19:22;16.30;51.70
17066;DHT22;23120;52.336;21.182;2022-12-24T15:21:50;16.30;51.50
17066;DHT22;23120;52.336;21.182;2022-12-24T15:24:25;16.30;51.50
17066;DHT22;23120;52.336;21.182;2022-12-24T15:26:52;16.30;51.40
17066;DHT22;23120;52.336;21.182;2022-12-24T15:29:22;16.30;51.40
17066;DHT22;23120;52.336;21.182;2022-12-24T15:31:52;16.30;51.40
17066;DHT22;23120;52.336;21.182;2022-12-24T15:34:27;16.30;51.50
17066;DHT22;23120;52.336;21.182;2022-12-24T15:37:01;16.30;51.60
17066;DHT22;23120;52.336;21.182;2022-12-24T15:39:29;16.20;52.20
17066;DHT22;23120;52.336;21.182;2022-12-24T15:41:56;16.20;51.70
17066;DHT22;23120;52.336;21.182;2022-12-24T15:44:49;16.20;51.70
17066;DHT22;23120;52.336;21.182;2022-12-24T15:47:25;16.10;51.70
17066;DHT22;23120;52.336;21.182;2022-12-24T15:49:54;16.10;51.70